Terminal Aerodrome Forecast
Issued by NWS Charleston, WV

Home | Current Version | Previous Version | Text Only | Print | Product List | Glossary On
Versions: 1 2 3 4 5 6 7 8 9 10 11 12 13 14 15 16 17 18 19 20 21 22 23 24 25 26 27 28 29
000
FTUS41 KRLX 211700
TAFCRW
TAF
KCRW 211720Z 2118/2218 18004KT P6SM SCT022 BKN060
     FM212000 21004KT 6SM -SHRA VCTS SCT022 BKN040CB
     FM220300 00000KT P6SM -RA BKN025 BKN040
     FM221100 00000KT 2SM BR BKN070
     FM221400 00000KT 6SM BR VCTS BKN080CB=

USA.gov is the U.S. government's official web portal to all federal, state and local government web resources and services.